Time;durP1;ratioP1;P1;durP2;ratioP2;P2;SDS_P1;SDS_P2;PMS_P1;PMS_P2;Temp;Humidity;BMP_temperature;BMP_pressure;BME280_temperature;BME280_humidity;BME280_pressure;Samples;Min_cycle;Max_cycle;Signal;HPM_P1;HPM_P2
2022/02/03 00:01:08;;;;;;;5.13;4.50;;;;;;;-0.02;67.28;93173.91;5019361;28;20025;-77
2022/02/03 00:03:49;;;;;;;5.72;4.45;;;;;;;0.10;67.23;93182.28;5025751;28;20395;-76
2022/02/03 00:06:18;;;;;;;5.88;4.13;;;;;;;0.16;66.46;93172.56;5019707;28;20098;-77
2022/02/03 00:24:56;;;;;;;5.63;3.55;;;;;;;-0.05;68.33;93187.50;5018966;28;20271;-77
2022/02/03 00:27:45;;;;;;;12.27;4.47;;;;;;;-0.22;68.93;93193.00;5022595;28;20071;-76
2022/02/03 00:30:14;;;;;;;7.03;5.72;;;;;;;-0.58;69.93;93152.22;5018351;28;20716;-76
2022/02/03 00:51:18;;;;;;;6.47;5.75;;;;;;;-0.03;68.59;93211.53;5027403;28;20045;-76
2022/02/03 00:53:44;;;;;;;9.60;5.53;;;;;;;0.07;68.51;93221.22;5014603;28;20493;-78
2022/02/03 00:56:15;;;;;;;11.95;5.53;;;;;;;0.04;68.25;93211.28;5026370;28;20127;-77
2022/02/03 00:58:45;;;;;;;6.45;4.32;;;;;;;0.05;68.37;93210.25;5012626;28;20039;-77
2022/02/03 01:01:16;;;;;;;10.82;6.05;;;;;;;0.03;68.37;93212.34;5020047;28;20370;-76
2022/02/03 01:03:42;;;;;;;9.20;6.43;;;;;;;-0.14;68.23;93182.00;5014962;28;20088;-76
2022/02/03 01:06:12;;;;;;;8.07;4.45;;;;;;;0.05;68.87;93218.09;5017506;28;20613;-77
2022/02/03 01:08:43;;;;;;;5.97;5.07;;;;;;;0.05;68.68;93228.56;5018888;28;20062;-76
2022/02/03 01:11:16;;;;;;;10.63;5.55;;;;;;;-0.21;69.62;93201.63;5031093;28;20095;-77
2022/02/03 01:19:22;;;;;;;9.82;5.88;;;;;;;-0.26;68.76;93160.59;5020472;28;20043;-77
2022/02/03 01:43:52;;;;;;;7.65;4.90;;;;;;;0.19;68.52;93226.97;5021069;28;20239;-76
2022/02/03 01:46:28;;;;;;;10.05;4.72;;;;;;;0.18;68.68;93230.63;5025658;28;20539;-76
2022/02/03 01:49:15;;;;;;;6.10;5.28;;;;;;;0.18;68.88;93222.78;5017355;28;20032;-76
2022/02/03 01:51:56;;;;;;;7.07;4.95;;;;;;;-0.41;69.52;93178.88;5026420;28;20080;-75
2022/02/03 01:54:27;;;;;;;7.68;5.60;;;;;;;0.08;69.70;93244.50;5021799;28;20029;-76
2022/02/03 01:57:06;;;;;;;10.13;4.90;;;;;;;0.09;69.63;93219.13;5021844;28;20432;-76
2022/02/03 01:59:35;;;;;;;7.03;4.97;;;;;;;0.26;68.66;93237.94;5015591;28;20612;-76
2022/02/03 02:02:04;;;;;;;7.60;5.07;;;;;;;0.31;68.45;93227.47;5022198;28;20061;-77
2022/02/03 02:04:32;;;;;;;9.73;5.43;;;;;;;0.34;68.22;93243.44;5019358;28;20431;-76
2022/02/03 02:07:06;;;;;;;8.90;4.97;;;;;;;0.13;68.92;93252.34;5019031;28;20203;-76
2022/02/03 02:10:08;;;;;;;8.73;5.20;;;;;;;0.22;68.87;93249.97;5023069;28;20160;-76
2022/02/03 02:13:03;;;;;;;11.07;6.00;;;;;;;0.19;68.54;93243.47;5021037;28;20565;-76
2022/02/03 02:37:55;;;;;;;6.85;5.45;;;;;;;0.60;66.07;93280.81;5025212;28;21032;-76
2022/02/03 02:43:22;;;;;;;5.75;4.32;;;;;;;0.43;66.87;93288.16;5026267;28;20114;-76
2022/02/03 02:46:14;;;;;;;9.88;5.50;;;;;;;0.31;67.25;93292.88;5017760;28;20110;-76
2022/02/03 02:49:22;;;;;;;11.13;5.75;;;;;;;0.34;68.04;93279.28;5023804;28;20053;-76
2022/02/03 02:52:07;;;;;;;8.13;4.70;;;;;;;0.51;67.08;93297.31;5021249;28;20401;-76
2022/02/03 02:55:15;;;;;;;9.15;4.63;;;;;;;0.55;66.66;93301.75;5019591;28;20041;-76
2022/02/03 03:33:45;;;;;;;13.00;6.30;;;;;;;0.53;66.00;93330.03;5017104;28;20067;-76
2022/02/03 03:36:14;;;;;;;13.95;7.60;;;;;;;0.61;65.58;93326.88;5015872;28;20037;-76
2022/02/03 03:38:43;;;;;;;17.50;8.68;;;;;;;0.56;65.19;93339.97;5012208;28;20120;-76
2022/02/03 03:41:16;;;;;;;13.75;6.88;;;;;;;0.39;65.46;93323.75;5026861;28;20128;-77
2022/02/03 03:43:59;;;;;;;11.95;6.20;;;;;;;0.51;65.69;93339.97;5018989;28;20449;-76
2022/02/03 03:46:32;;;;;;;13.70;7.90;;;;;;;0.51;65.46;93352.25;5023632;28;20028;-76
2022/02/03 03:49:32;;;;;;;10.07;6.03;;;;;;;0.38;65.86;93358.78;5016820;28;20102;-76
2022/02/03 03:52:02;;;;;;;16.33;8.70;;;;;;;0.50;65.91;93363.75;5014520;28;20041;-76
2022/02/03 03:57:56;;;;;;;9.48;5.18;;;;;;;0.48;65.64;93352.78;5015845;28;20033;-76
2022/02/03 04:46:10;;;;;;;6.78;5.20;;;;;;;0.46;63.83;93441.19;5012162;28;20456;-76
2022/02/03 04:57:58;;;;;;;8.02;4.72;;;;;;;0.26;64.68;93455.03;4996032;28;20045;-75
2022/02/03 05:09:26;;;;;;;7.45;4.72;;;;;;;0.19;64.23;93472.81;5026709;28;20058;-76
2022/02/03 05:12:35;;;;;;;7.07;4.55;;;;;;;0.31;64.49;93483.81;5026777;28;20071;-76
2022/02/03 05:15:31;;;;;;;7.80;5.60;;;;;;;0.23;64.67;93486.94;5022560;28;20397;-76
2022/02/03 05:34:44;;;;;;;5.85;5.25;;;;;;;0.91;62.09;93526.88;5016336;28;20102;-77
2022/02/03 05:42:39;;;;;;;7.82;5.28;;;;;;;0.99;60.94;93542.84;5028440;28;20088;-76
2022/02/03 05:51:08;;;;;;;7.55;4.28;;;;;;;0.81;60.55;93519.78;5021760;28;20208;-76
2022/02/03 06:15:12;;;;;;;8.80;5.05;;;;;;;1.02;58.93;93599.16;5023977;28;20354;-76
2022/02/03 06:29:06;;;;;;;5.30;3.97;;;;;;;0.80;59.37;93628.16;5020490;28;20044;-76
2022/02/03 06:31:40;;;;;;;7.47;4.75;;;;;;;0.80;59.13;93623.72;5015885;28;21299;-76
2022/02/03 06:34:06;;;;;;;8.18;4.63;;;;;;;0.74;59.50;93629.22;5021396;28;20042;-77
2022/02/03 06:36:32;;;;;;;9.50;6.28;;;;;;;0.61;59.35;93604.28;5015403;28;20029;-77
2022/02/03 06:38:58;;;;;;;8.23;4.68;;;;;;;0.85;59.31;93640.47;5025970;28;20045;-77
2022/02/03 06:41:24;;;;;;;9.88;5.53;;;;;;;0.76;59.02;93614.00;5025226;28;20401;-77
2022/02/03 06:43:49;;;;;;;7.65;5.53;;;;;;;0.90;58.38;93638.66;5015893;28;20072;-76
2022/02/03 06:46:15;;;;;;;4.60;4.15;;;;;;;1.00;58.64;93651.00;5022339;28;20063;-76
2022/02/03 06:48:45;;;;;;;5.45;4.55;;;;;;;1.04;57.92;93641.59;5022729;28;20033;-76
2022/02/03 06:51:21;;;;;;;8.70;4.72;;;;;;;0.84;57.91;93637.06;5022735;28;20152;-76
2022/02/03 06:53:51;;;;;;;7.38;5.03;;;;;;;0.98;58.28;93661.75;5019809;28;20186;-76
2022/02/03 06:56:35;;;;;;;7.57;4.60;;;;;;;1.03;57.98;93664.41;5031138;28;20037;-76
2022/02/03 06:59:02;;;;;;;10.80;6.97;;;;;;;1.11;57.98;93652.63;5025492;28;20782;-76
2022/02/03 07:01:34;;;;;;;14.05;6.35;;;;;;;1.05;57.65;93632.69;5024233;28;20048;-76
2022/02/03 07:04:04;;;;;;;16.83;8.85;;;;;;;0.83;57.04;93585.00;5020974;28;20059;-77
2022/02/03 07:06:30;;;;;;;9.43;5.32;;;;;;;1.15;56.93;93630.88;5016760;28;20030;-76
2022/02/03 07:08:56;;;;;;;9.00;5.68;;;;;;;1.22;56.50;93643.75;5030323;28;20044;-76
2022/02/03 07:11:23;;;;;;;7.22;4.43;;;;;;;1.24;56.74;93660.78;5024412;28;20527;-75
2022/02/03 07:13:49;;;;;;;6.13;4.53;;;;;;;1.23;56.93;93634.81;5013765;28;20128;-76
2022/02/03 07:16:14;;;;;;;8.00;5.28;;;;;;;1.77;56.34;93681.56;5015648;28;20029;-76
2022/02/03 07:18:40;;;;;;;7.25;5.07;;;;;;;1.68;55.24;93666.34;5021456;28;20040;-76
2022/02/03 07:21:06;;;;;;;6.60;4.55;;;;;;;1.51;55.80;93681.53;5022812;28;20516;-76
2022/02/03 07:23:34;;;;;;;7.68;5.40;;;;;;;1.37;55.97;93661.34;5017761;28;20808;-76
2022/02/03 07:26:00;;;;;;;8.18;5.45;;;;;;;1.49;56.08;93675.75;5024968;28;20040;-76
2022/02/03 07:28:25;;;;;;;7.50;4.97;;;;;;;1.37;56.23;93680.47;5025591;28;20018;-76
2022/02/03 07:30:51;;;;;;;4.97;4.32;;;;;;;1.04;56.24;93638.97;5025769;28;20020;-77
2022/02/03 07:33:16;;;;;;;5.55;4.28;;;;;;;1.30;56.61;93686.97;5023700;28;20044;-76
2022/02/03 07:35:42;;;;;;;5.35;4.22;;;;;;;1.45;56.56;93702.75;5019209;28;20547;-76
2022/02/03 07:38:08;;;;;;;8.55;4.80;;;;;;;1.48;56.79;93718.72;5010916;28;20122;-76
2022/02/03 07:40:35;;;;;;;5.07;4.15;;;;;;;1.40;56.74;93718.47;5024976;28;20041;-76
2022/02/03 07:43:04;;;;;;;6.25;4.70;;;;;;;1.24;56.64;93696.66;5025128;28;20612;-76
2022/02/03 07:45:31;;;;;;;8.13;3.90;;;;;;;1.35;56.69;93718.44;5024139;28;20033;-77
2022/02/03 07:47:56;;;;;;;9.13;5.80;;;;;;;1.05;57.05;93706.03;5011699;28;20033;-76
2022/02/03 07:50:23;;;;;;;8.05;5.93;;;;;;;1.03;57.65;93734.31;5027404;28;20041;-76
2022/02/03 07:52:48;;;;;;;9.18;5.97;;;;;;;1.19;57.39;93738.56;5012632;28;20494;-76
2022/02/03 07:55:15;;;;;;;8.90;4.82;;;;;;;1.20;57.53;93740.13;5024118;28;20106;-76
2022/02/03 07:57:48;;;;;;;7.30;5.30;;;;;;;1.02;57.61;93719.63;5015815;28;20029;-76
2022/02/03 08:00:16;;;;;;;5.00;4.28;;;;;;;1.19;57.44;93739.34;5020305;28;20242;-77
2022/02/03 08:02:44;;;;;;;6.25;4.97;;;;;;;1.13;57.46;93748.22;5022786;28;20508;-76
2022/02/03 08:05:15;;;;;;;11.73;5.38;;;;;;;0.87;57.61;93701.25;5019737;28;20048;-76
2022/02/03 08:08:19;;;;;;;7.03;5.05;;;;;;;1.00;57.78;93758.38;5020207;28;20130;-76
2022/02/03 08:10:51;;;;;;;7.13;4.70;;;;;;;0.90;58.29;93753.88;5014230;28;20060;-77
2022/02/03 08:13:26;;;;;;;10.75;5.70;;;;;;;0.78;58.32;93741.00;5031955;28;20079;-76
2022/02/03 08:15:59;;;;;;;7.43;5.35;;;;;;;0.98;58.20;93763.09;5025967;28;20050;-76
2022/02/03 08:18:29;;;;;;;9.38;5.80;;;;;;;0.92;58.36;93769.34;5023216;28;20044;-76
2022/02/03 08:21:00;;;;;;;7.45;5.18;;;;;;;1.01;58.36;93775.69;5024376;28;20107;-76
2022/02/03 08:23:56;;;;;;;10.15;6.22;;;;;;;0.84;58.41;93764.59;5025131;28;20409;-76
2022/02/03 08:31:37;;;;;;;7.85;4.80;;;;;;;0.90;58.67;93790.53;5020502;28;20033;-76
2022/02/03 08:34:02;;;;;;;10.52;4.65;;;;;;;0.80;58.90;93777.38;5024078;28;20314;-77
2022/02/03 08:36:33;;;;;;;9.50;5.03;;;;;;;0.83;58.38;93763.81;5025431;28;20401;-76
2022/02/03 08:38:59;;;;;;;8.75;5.38;;;;;;;0.96;58.23;93781.69;5017927;28;20064;-77
2022/02/03 08:41:25;;;;;;;7.20;5.63;;;;;;;0.99;58.69;93817.03;5031873;28;20034;-76
2022/02/03 08:43:51;;;;;;;7.95;5.85;;;;;;;0.82;58.78;93783.16;5025102;28;20604;-76
2022/02/03 08:46:16;;;;;;;9.57;6.03;;;;;;;0.87;58.81;93808.59;5019708;28;20029;-76
2022/02/03 08:48:42;;;;;;;7.90;5.07;;;;;;;1.16;58.98;93825.53;5019468;28;20492;-76
2022/02/03 08:51:09;;;;;;;10.68;5.05;;;;;;;0.91;58.05;93786.09;5039010;28;20040;-77
2022/02/03 08:53:40;;;;;;;8.52;5.65;;;;;;;1.03;58.14;93820.75;5022609;28;20065;-76
2022/02/03 09:38:09;;;;;;;5.78;4.35;;;;;;;1.30;56.90;93865.16;5021578;28;20139;-76
2022/02/03 09:57:36;;;;;;;8.13;4.95;;;;;;;1.30;56.85;93870.38;5025511;28;20037;-75
2022/02/03 09:59:35;;;;;;;6.72;4.75;;;;;;;1.30;57.33;93878.25;5016302;28;20350;-79
2022/02/03 10:02:10;;;;;;;6.97;4.82;;;;;;;1.30;56.79;93873.00;5027303;28;20059;-76
2022/02/03 10:04:55;;;;;;;24.13;5.72;;;;;;;1.25;57.11;93892.13;5011241;28;20063;-75
2022/02/03 10:07:25;;;;;;;6.53;5.18;;;;;;;1.04;57.79;93859.75;5009175;28;20021;-75
2022/02/03 10:09:53;;;;;;;6.22;4.78;;;;;;;1.21;57.66;93883.97;5027258;28;20674;-78
2022/02/03 10:12:28;;;;;;;5.38;4.57;;;;;;;1.28;57.51;93886.34;5021357;28;20059;-75
2022/02/03 10:14:55;;;;;;;7.05;4.68;;;;;;;1.37;57.54;93884.06;5021249;28;20402;-75
2022/02/03 10:17:41;;;;;;;13.80;4.53;;;;;;;1.33;57.28;93864.63;5028411;28;20060;-77
2022/02/03 10:20:11;;;;;;;8.60;4.28;;;;;;;1.59;57.00;93882.88;5020963;28;20041;-73
2022/02/03 10:22:51;;;;;;;6.30;5.13;;;;;;;1.47;56.82;93874.41;5015419;28;20041;-76
2022/02/03 10:25:25;;;;;;;7.05;4.05;;;;;;;1.45;57.04;93863.41;5020069;28;20055;-75
2022/02/03 10:28:07;;;;;;;8.70;5.65;;;;;;;1.61;56.40;93865.06;5026395;28;20039;-77
2022/02/03 10:31:01;;;;;;;10.18;4.13;;;;;;;1.70;56.09;93883.72;5021855;28;20159;-74
2022/02/03 10:33:38;;;;;;;6.95;4.63;;;;;;;1.39;56.20;93851.31;5023720;28;20045;-75
2022/02/03 10:36:23;;;;;;;5.60;4.25;;;;;;;1.64;55.82;93887.34;5024387;28;20536;-75
2022/02/03 10:39:26;;;;;;;6.80;4.40;;;;;;;1.63;55.74;93870.81;5019593;28;20571;-75
2022/02/03 10:42:08;;;;;;;7.85;4.05;;;;;;;1.63;56.06;93854.31;5023163;28;20517;-76
2022/02/03 10:45:07;;;;;;;7.32;4.25;;;;;;;1.71;56.01;93850.41;5022194;28;20083;-78
2022/02/03 10:50:25;;;;;;;8.30;4.45;;;;;;;2.12;55.01;93875.75;5021382;28;20460;-75
2022/02/03 10:56:16;;;;;;;5.97;4.93;;;;;;;1.89;54.65;93836.84;5024656;28;20578;-74
2022/02/03 11:07:04;;;;;;;4.95;3.60;;;;;;;2.02;54.17;93850.28;5017621;28;20049;-74
2022/02/03 11:09:58;;;;;;;8.98;4.90;;;;;;;2.20;54.57;93867.38;5018128;28;20053;-75
2022/02/03 11:12:23;;;;;;;7.95;4.45;;;;;;;2.12;54.05;93828.50;5016683;28;20036;-73
2022/02/03 11:14:50;;;;;;;13.32;5.57;;;;;;;2.25;54.11;93828.03;5014023;28;20044;-73
2022/02/03 11:17:17;;;;;;;4.78;4.10;;;;;;;2.31;53.94;93834.84;5024033;28;20029;-73
2022/02/03 11:19:51;;;;;;;5.15;4.18;;;;;;;2.69;53.89;93859.03;5025812;28;20053;-75
2022/02/03 11:22:24;;;;;;;8.40;4.95;;;;;;;2.35;53.23;93775.53;5018121;28;20040;-74
2022/02/03 11:25:05;;;;;;;6.00;4.63;;;;;;;2.94;52.77;93861.63;5023974;28;20067;-74
2022/02/03 11:27:50;;;;;;;7.75;4.30;;;;;;;3.07;52.09;93866.38;5027986;28;20099;-74
2022/02/03 11:30:57;;;;;;;7.18;5.00;;;;;;;2.85;51.52;93831.69;5020798;28;20069;-73
2022/02/03 11:47:10;;;;;;;9.75;4.97;;;;;;;3.44;50.75;93862.59;5018651;28;20600;-76
2022/02/03 11:53:16;;;;;;;7.95;4.78;;;;;;;3.38;50.84;93846.84;5022188;28;20033;-76
2022/02/03 12:01:32;;;;;;;7.10;4.70;;;;;;;3.22;51.43;93858.47;5020792;28;20047;-75
2022/02/03 12:04:12;;;;;;;5.50;3.83;;;;;;;3.11;51.54;93858.75;5021587;28;20049;-75
2022/02/03 12:10:33;;;;;;;7.25;4.07;;;;;;;3.02;52.24;93841.94;5019501;28;20060;-75
2022/02/03 12:20:59;;;;;;;10.50;4.95;;;;;;;3.42;50.47;93825.28;5020719;28;20421;-75
2022/02/03 12:23:49;;;;;;;6.28;4.38;;;;;;;3.51;50.00;93865.75;5019848;28;20380;-75
2022/02/03 12:26:25;;;;;;;7.47;4.78;;;;;;;3.44;50.31;93849.47;5017575;28;20153;-76
2022/02/03 12:29:03;;;;;;;13.75;5.20;;;;;;;3.55;50.25;93857.06;5020320;28;20585;-76
2022/02/03 12:39:17;;;;;;;8.63;4.60;;;;;;;3.70;49.95;93850.97;5010104;28;20099;-75
2022/02/03 12:42:00;;;;;;;6.22;4.72;;;;;;;3.15;50.83;93794.09;5031087;28;20037;-75
2022/02/03 12:44:27;;;;;;;7.97;6.07;;;;;;;3.30;51.71;93834.25;5016174;28;20036;-75
2022/02/03 12:46:54;;;;;;;9.32;5.95;;;;;;;3.58;51.42;93855.72;5017305;28;20141;-75
2022/02/03 12:49:22;;;;;;;7.55;4.68;;;;;;;3.75;51.00;93872.00;5021065;28;20025;-75
2022/02/03 12:51:50;;;;;;;7.88;5.25;;;;;;;3.49;51.17;93863.38;5018444;28;20339;-76
2022/02/03 12:54:16;;;;;;;9.73;5.40;;;;;;;3.68;51.33;93871.47;5012912;28;20029;-74
2022/02/03 12:56:42;;;;;;;8.98;4.75;;;;;;;3.56;51.56;93855.22;5017218;28;20134;-73
2022/02/03 12:59:13;;;;;;;7.65;4.25;;;;;;;3.67;51.45;93877.81;5010221;28;20354;-74
2022/02/03 13:01:41;;;;;;;8.93;5.53;;;;;;;3.78;51.13;93866.19;5013674;28;20076;-77
2022/02/03 13:04:14;;;;;;;6.03;4.97;;;;;;;3.92;50.80;93877.69;5015020;28;20029;-78
2022/02/03 13:06:46;;;;;;;9.35;6.15;;;;;;;3.94;50.76;93862.44;5013817;28;20516;-75
2022/02/03 13:09:14;;;;;;;11.75;5.55;;;;;;;4.09;50.70;93867.63;5020778;28;20048;-76
2022/02/03 13:11:53;;;;;;;9.32;5.55;;;;;;;4.14;50.24;93886.03;5015858;28;20553;-76
2022/02/03 13:14:45;;;;;;;9.27;5.60;;;;;;;4.04;49.65;93886.09;5017232;28;20044;-75
2022/02/03 13:17:15;;;;;;;8.82;4.82;;;;;;;3.76;49.98;93868.31;5022363;28;20394;-75
2022/02/03 13:22:22;;;;;;;7.88;5.07;;;;;;;3.56;50.08;93895.47;5016715;28;20577;-75
2022/02/03 13:25:21;;;;;;;5.65;4.82;;;;;;;3.64;49.68;93899.38;5016481;28;20025;-75
2022/02/03 13:28:08;;;;;;;8.77;4.97;;;;;;;3.29;50.38;93885.25;5014633;28;20037;-75
2022/02/03 13:30:52;;;;;;;7.25;4.63;;;;;;;3.34;49.93;93898.38;5014441;28;20560;-76
2022/02/03 13:33:25;;;;;;;5.85;4.18;;;;;;;3.26;50.29;93901.56;5018471;28;20643;-75
2022/02/03 13:36:07;;;;;;;6.80;5.10;;;;;;;3.15;50.42;93881.59;5012546;28;20069;-75
2022/02/03 13:41:22;;;;;;;11.75;7.03;;;;;;;1.84;60.46;93925.97;5012343;28;20954;-75
2022/02/03 13:43:48;;;;;;;10.00;6.00;;;;;;;2.17;60.73;93907.25;5016156;28;20071;-77
2022/02/03 13:46:28;;;;;;;12.38;6.38;;;;;;;2.03;62.12;93917.44;5017128;28;20020;-76
2022/02/03 13:48:53;;;;;;;12.93;7.47;;;;;;;1.71;64.29;93900.22;5021023;28;20028;-75
2022/02/03 13:51:23;;;;;;;11.88;7.32;;;;;;;1.70;65.05;93909.94;5027377;28;20033;-77
2022/02/03 13:54:20;;;;;;;11.07;6.93;;;;;;;2.28;63.37;93916.72;5015480;28;20144;-75
2022/02/03 14:21:22;;;;;;;9.80;6.30;;;;;;;3.75;52.52;93929.88;5024331;28;20044;-75
2022/02/03 14:29:20;;;;;;;5.57;3.58;;;;;;;3.07;51.12;93939.94;5024943;28;20304;-75
2022/02/03 14:31:53;;;;;;;11.13;5.10;;;;;;;2.63;51.91;93933.59;5027250;28;20148;-75
2022/02/03 14:34:25;;;;;;;8.60;5.32;;;;;;;2.47;52.74;93936.19;5025100;28;20029;-75
2022/02/03 14:37:01;;;;;;;7.70;4.57;;;;;;;2.50;52.07;93950.63;5024087;28;20155;-75
2022/02/03 14:39:41;;;;;;;;;;;;;;;2.23;52.24;93956.06;5025149;28;20033;-75
2022/02/03 14:42:09;;;;;;;5.75;2.85;;;;;;;1.73;51.55;93959.22;5024297;28;20388;-75
2022/02/03 14:44:35;;;;;;;5.43;3.20;;;;;;;1.72;52.33;93965.50;5025678;28;20480;-76
2022/02/03 14:47:02;;;;;;;4.03;2.83;;;;;;;1.49;52.38;93966.69;5023117;28;20483;-75
2022/02/03 14:49:27;;;;;;;6.20;4.07;;;;;;;1.29;53.28;93935.09;5029226;28;20024;-75
2022/02/03 14:52:11;;;;;;;5.03;3.75;;;;;;;1.56;52.51;93954.16;5025841;28;20048;-76
2022/02/03 15:00:06;;;;;;;8.07;4.13;;;;;;;1.47;53.01;93974.00;5022642;28;20687;-73
2022/02/03 15:02:32;;;;;;;4.05;3.45;;;;;;;1.42;53.18;93974.00;5024814;28;20053;-76
2022/02/03 15:05:07;;;;;;;6.57;3.30;;;;;;;1.36;52.96;93979.44;5025840;28;20067;-74
2022/02/03 15:07:39;;;;;;;5.22;4.10;;;;;;;1.23;53.50;93988.50;5028282;28;20044;-75
2022/02/03 15:15:01;;;;;;;4.50;3.72;;;;;;;0.94;53.09;93976.75;5027186;28;20615;-76
2022/02/03 15:17:33;;;;;;;5.68;3.28;;;;;;;0.97;53.89;93984.91;5029446;28;20112;-76
2022/02/03 15:19:58;;;;;;;6.63;3.53;;;;;;;1.00;53.00;93981.00;5031491;28;20102;-74
2022/02/03 15:22:25;;;;;;;8.05;4.97;;;;;;;1.04;52.53;93968.97;5022654;28;20017;-73
2022/02/03 15:24:50;;;;;;;9.48;4.43;;;;;;;1.23;50.98;94002.41;5024129;28;20574;-73
2022/02/03 15:27:16;;;;;;;7.05;4.13;;;;;;;1.32;50.93;94021.09;5023341;28;20041;-74
2022/02/03 15:29:50;;;;;;;5.65;4.30;;;;;;;1.05;51.34;93996.75;5021822;28;20744;-73
2022/02/03 15:32:16;;;;;;;5.30;4.35;;;;;;;1.24;50.76;94029.41;5019844;28;20528;-77
2022/02/03 15:34:42;;;;;;;9.18;5.43;;;;;;;-0.45;50.47;93736.13;5020420;28;20648;-73
2022/02/03 15:37:13;;;;;;;8.65;4.95;;;;;;;1.13;50.47;94022.50;5014234;28;20124;-75
2022/02/03 15:39:47;;;;;;;7.88;5.00;;;;;;;1.01;50.62;94011.38;5031307;28;20630;-75
2022/02/03 15:42:13;;;;;;;7.07;4.53;;;;;;;1.19;50.55;94040.63;5017141;28;20563;-74
2022/02/03 15:44:42;;;;;;;4.95;3.63;;;;;;;1.12;50.36;94034.03;5020559;28;20103;-76
2022/02/03 15:47:18;;;;;;;3.28;2.97;;;;;;;1.08;50.23;94056.50;5021082;28;20076;-75
2022/02/03 16:01:12;;;;;;;3.85;2.92;;;;;;;1.27;49.71;94068.22;5018806;28;20170;-76
2022/02/03 16:03:43;;;;;;;4.00;3.60;;;;;;;1.19;49.42;94077.31;5020155;28;20029;-75
2022/02/03 16:16:52;;;;;;;6.57;4.63;;;;;;;0.64;50.09;94090.59;5021510;28;20044;-76
2022/02/03 16:19:21;;;;;;;6.53;3.88;;;;;;;0.66;50.41;94109.47;5023211;28;20039;-75
2022/02/03 16:21:55;;;;;;;5.15;4.32;;;;;;;0.52;50.64;94092.56;5019642;28;20404;-73
2022/02/03 16:25:09;;;;;;;10.90;5.50;;;;;;;0.56;50.83;94093.66;5023367;28;20397;-76
2022/02/03 16:51:41;;;;;;;5.35;3.47;;;;;;;0.38;51.13;94143.69;5024412;28;20472;-75
2022/02/03 16:54:11;;;;;;;5.70;3.65;;;;;;;0.11;51.54;94145.38;5027885;28;20237;-75
2022/02/03 16:56:37;;;;;;;5.40;4.53;;;;;;;0.04;51.91;94166.47;5042968;28;20041;-75
2022/02/03 16:59:03;;;;;;;7.03;4.47;;;;;;;-0.27;52.44;94139.06;5017340;28;20044;-75
2022/02/03 17:01:28;;;;;;;8.75;4.70;;;;;;;0.11;52.32;94192.44;5020458;28;20032;-75
2022/02/03 17:03:56;;;;;;;6.00;4.38;;;;;;;-0.02;52.25;94169.25;5020292;28;20095;-76
2022/02/03 17:06:22;;;;;;;8.30;5.43;;;;;;;0.22;51.93;94191.56;5019979;28;20041;-76
2022/02/03 17:08:48;;;;;;;12.25;5.32;;;;;;;0.08;51.76;94179.84;5021174;28;20577;-75
2022/02/03 17:11:13;;;;;;;11.07;6.55;;;;;;;0.00;51.85;94154.91;5017726;28;20049;-76
2022/02/03 17:13:40;;;;;;;8.13;5.93;;;;;;;-0.00;51.86;94188.13;5021601;28;20041;-79
2022/02/03 17:16:06;;;;;;;8.27;5.00;;;;;;;-0.31;51.84;94158.06;5019624;28;20517;-76
2022/02/03 17:18:32;;;;;;;5.82;4.72;;;;;;;-0.19;51.58;94177.09;5020568;28;20320;-73
2022/02/03 17:20:57;;;;;;;8.88;5.22;;;;;;;-0.20;51.57;94173.69;5020161;28;20411;-75
2022/02/03 17:23:25;;;;;;;5.47;4.20;;;;;;;-0.05;51.24;94196.66;5016228;28;20037;-75
2022/02/03 17:28:24;;;;;;;5.00;4.18;;;;;;;-0.33;52.03;94194.09;5020795;28;20035;-76
2022/02/03 17:31:33;;;;;;;6.97;4.67;;;;;;;-0.07;51.40;94203.94;5021393;28;20312;-76
2022/02/03 18:04:12;;;;;;;8.27;4.28;;;;;;;-0.47;51.62;94167.47;5019273;28;20079;-76
2022/02/03 18:26:18;;;;;;;6.10;4.28;;;;;;;-0.32;53.23;94261.03;5018981;28;20052;-74
2022/02/03 18:55:31;;;;;;;7.30;4.88;;;;;;;-0.73;54.62;94251.66;5017917;28;20067;-74
2022/02/03 18:58:07;;;;;;;8.65;4.75;;;;;;;-0.73;54.48;94265.50;5022874;28;21002;-73
2022/02/03 19:24:41;;;;;;;7.50;3.83;;;;;;;-0.99;54.15;94258.97;5020870;28;20047;-74
2022/02/03 19:28:02;;;;;;;4.20;3.72;;;;;;;-1.13;53.98;94252.44;5021633;28;20541;-75
2022/02/03 20:10:49;;;;;;;5.25;4.70;;;;;;;-0.81;53.83;94276.31;4997150;28;20627;-74
2022/02/03 20:13:09;;;;;;;3.95;2.78;;;;;;;-0.87;54.10;94273.84;5008002;28;20476;-76
2022/02/03 20:15:37;;;;;;;4.40;3.80;;;;;;;-0.95;53.85;94246.25;5014911;28;20515;-74
2022/02/03 20:18:06;;;;;;;7.65;4.85;;;;;;;-1.35;54.10;94191.41;5017960;28;20432;-75
2022/02/03 20:20:35;;;;;;;9.43;5.10;;;;;;;-1.05;53.97;94239.00;5017005;28;20055;-73
2022/02/03 20:23:03;;;;;;;4.97;4.03;;;;;;;-0.89;53.59;94231.47;5019384;28;20037;-74
2022/02/03 20:25:29;;;;;;;4.78;3.90;;;;;;;-0.69;53.07;94260.59;5022497;28;20094;-75
2022/02/03 20:27:55;;;;;;;4.68;4.28;;;;;;;-0.78;53.47;94273.25;5020294;28;20057;-76
2022/02/03 20:30:23;;;;;;;4.10;3.38;;;;;;;-0.80;53.42;94279.72;5023315;28;20041;-75
2022/02/03 20:32:48;;;;;;;5.15;3.58;;;;;;;-1.15;53.81;94259.69;5021683;28;20041;-74
2022/02/03 20:35:16;;;;;;;3.47;2.75;;;;;;;-0.99;53.82;94279.88;5014697;28;20091;-73
2022/02/03 20:37:41;;;;;;;6.95;4.45;;;;;;;-0.93;53.63;94275.56;5014352;28;20033;-74
2022/02/03 20:40:10;;;;;;;4.07;3.25;;;;;;;-0.73;53.37;94289.03;5020856;28;20262;-74
2022/02/03 20:42:35;;;;;;;5.90;3.35;;;;;;;-1.09;53.26;94247.53;5028659;28;20635;-73
2022/02/03 20:45:01;;;;;;;3.15;2.80;;;;;;;-0.99;53.35;94263.41;5020287;28;20045;-74
2022/02/03 20:47:28;;;;;;;5.55;3.72;;;;;;;-0.81;53.41;94275.50;5018077;28;20041;-75
2022/02/03 20:49:54;;;;;;;5.38;3.22;;;;;;;-1.05;53.62;94244.22;5018188;28;20549;-73
2022/02/03 20:52:19;;;;;;;7.03;3.05;;;;;;;-0.96;53.70;94268.16;5018783;28;20027;-73
2022/02/03 20:54:48;;;;;;;3.70;3.30;;;;;;;-1.03;53.67;94273.53;5012842;28;20036;-75
2022/02/03 20:57:14;;;;;;;7.22;3.38;;;;;;;-1.01;53.77;94266.25;5024290;28;20035;-74
2022/02/03 21:05:12;;;;;;;8.45;4.75;;;;;;;-1.18;53.77;94275.81;5021575;28;20037;-74
2022/02/03 21:07:38;;;;;;;9.95;3.63;;;;;;;-1.30;53.68;94259.34;5021526;28;20600;-74
2022/02/03 21:10:09;;;;;;;12.88;6.22;;;;;;;-1.19;53.68;94279.44;5018427;28;20722;-73
2022/02/03 21:12:34;;;;;;;7.32;5.95;;;;;;;-1.11;53.09;94260.00;5019589;28;20406;-74
2022/02/03 21:15:05;;;;;;;7.80;3.60;;;;;;;-1.27;52.75;94258.13;5014611;28;20037;-74
2022/02/03 21:17:32;;;;;;;7.47;4.63;;;;;;;-1.37;53.13;94269.13;5022088;28;20034;-74
2022/02/03 21:20:06;;;;;;;10.07;5.03;;;;;;;-1.16;52.94;94276.38;5023685;28;20110;-75
2022/02/03 21:22:32;;;;;;;6.30;3.85;;;;;;;-1.38;52.61;94259.72;5018151;28;20021;-73
2022/02/03 21:25:03;;;;;;;12.45;4.60;;;;;;;-1.30;52.15;94263.78;5019662;28;20143;-73
2022/02/03 21:27:32;;;;;;;10.10;4.10;;;;;;;-1.29;51.73;94252.31;5021005;28;20068;-74
2022/02/03 21:29:59;;;;;;;5.63;3.40;;;;;;;-1.14;51.78;94282.16;5037161;28;20037;-76
2022/02/03 21:32:27;;;;;;;4.65;3.53;;;;;;;-1.17;51.62;94281.84;5025445;28;20520;-76
2022/02/03 21:34:55;;;;;;;4.70;3.33;;;;;;;-1.20;51.30;94254.34;5022200;28;20041;-74
2022/02/03 21:37:20;;;;;;;4.68;3.38;;;;;;;-1.54;51.17;94201.19;5028707;28;20021;-73
2022/02/03 21:39:45;;;;;;;3.92;3.33;;;;;;;-1.02;50.82;94264.66;5021602;28;20094;-73
2022/02/03 21:42:11;;;;;;;5.60;3.85;;;;;;;-0.90;50.28;94253.41;5022273;28;20041;-76
2022/02/03 21:44:36;;;;;;;5.20;3.70;;;;;;;-0.67;49.78;94271.59;5025089;28;20631;-75
2022/02/03 21:47:02;;;;;;;8.70;3.90;;;;;;;-0.69;49.74;94265.84;5024486;28;20658;-73
2022/02/03 21:49:27;;;;;;;6.63;3.67;;;;;;;-0.76;49.29;94237.22;5024505;28;20025;-74
2022/02/03 21:51:55;;;;;;;8.57;3.97;;;;;;;-0.46;49.10;94270.97;5023890;28;20041;-75
2022/02/03 21:54:21;;;;;;;7.35;3.80;;;;;;;-0.78;48.73;94239.28;5021878;28;20041;-74
2022/02/03 21:56:48;;;;;;;8.13;4.43;;;;;;;-0.84;48.55;94214.09;5024871;28;20405;-74
2022/02/03 21:59:15;;;;;;;2.85;2.58;;;;;;;-0.54;48.38;94240.78;5020527;28;20564;-74
2022/02/03 22:01:42;;;;;;;4.60;3.08;;;;;;;-0.47;48.36;94266.75;5021380;28;20033;-73
2022/02/03 22:04:08;;;;;;;3.95;3.05;;;;;;;-0.47;48.83;94234.63;5019275;28;20051;-74
2022/02/03 22:06:33;;;;;;;6.03;3.17;;;;;;;-0.42;48.57;94217.22;5026235;28;20482;-76
2022/02/03 22:08:59;;;;;;;5.55;3.60;;;;;;;-0.17;47.58;94230.72;5019089;28;20516;-74
2022/02/03 22:11:27;;;;;;;2.90;2.70;;;;;;;-0.15;47.94;94254.81;5023110;28;20128;-76
2022/02/03 22:13:53;;;;;;;7.45;3.75;;;;;;;-0.17;47.94;94256.88;5019952;28;20045;-74
2022/02/03 22:16:23;;;;;;;5.95;3.72;;;;;;;-0.27;48.23;94248.84;5026374;28;20401;-74